Time;durP1;ratioP1;P1;durP2;ratioP2;P2;SDS_P1;SDS_P2;PMS_P1;PMS_P2;Temp;Humidity;BMP_temperature;BMP_pressure;BME280_temperature;BME280_humidity;BME280_pressure;Samples;Min_cycle;Max_cycle;Signal;HPM_P1;HPM_P2
2022/06/04 00:00:26;;;;;;;1.40;1.27;;;18.70;96.70;;;;;;5113226;28;20208;-59
2022/06/04 00:02:52;;;;;;;1.17;1.13;;;18.60;96.40;;;;;;5113206;28;20174;-59
2022/06/04 00:05:23;;;;;;;1.33;1.23;;;18.60;96.70;;;;;;5112838;28;20707;-57
2022/06/04 00:07:52;;;;;;;1.15;1.10;;;18.60;97.50;;;;;;5112165;28;20234;-59
2022/06/04 00:15:56;;;;;;;1.30;1.20;;;18.70;96.40;;;;;;5113438;28;20247;-58
2022/06/04 00:18:23;;;;;;;1.15;1.05;;;18.70;96.50;;;;;;5115412;28;20205;-58
2022/06/04 00:20:50;;;;;;;1.88;1.10;;;18.80;96.50;;;;;;5116808;28;20181;-59
2022/06/04 00:23:17;;;;;;;1.70;1.00;;;18.60;97.00;;;;;;5116985;28;20166;-59
2022/06/04 00:25:47;;;;;;;1.00;0.98;;;18.60;97.10;;;;;;5116600;28;20522;-59
2022/06/04 00:28:13;;;;;;;1.23;1.05;;;18.60;96.80;;;;;;5116800;28;20180;-58
2022/06/04 00:30:39;;;;;;;1.00;1.00;;;18.50;96.90;;;;;;5116682;28;20177;-58
2022/06/04 00:33:05;;;;;;;1.15;1.10;;;18.60;97.40;;;;;;5116475;28;20518;-58
2022/06/04 00:35:33;;;;;;;1.30;1.10;;;18.60;96.90;;;;;;5116632;28;20169;-58
2022/06/04 00:37:59;;;;;;;1.42;1.20;;;18.50;96.60;;;;;;5116297;28;20216;-58
2022/06/04 00:40:48;;;;;;;2.58;1.23;;;18.50;97.20;;;;;;5114923;28;20185;-58
2022/06/04 00:43:14;;;;;;;1.25;1.15;;;18.40;96.40;;;;;;5116471;28;20555;-59
2022/06/04 00:46:11;;;;;;;1.30;1.20;;;18.30;97.00;;;;;;5116269;28;20647;-58
2022/06/04 00:48:36;;;;;;;0.88;0.88;;;18.40;97.20;;;;;;5116173;28;20215;-59
2022/06/04 00:51:04;;;;;;;1.13;1.02;;;18.50;96.50;;;;;;5116071;28;20185;-59
2022/06/04 00:53:30;;;;;;;1.10;1.00;;;18.40;97.10;;;;;;5116025;28;20177;-58
2022/06/04 00:56:10;;;;;;;1.10;1.00;;;18.30;96.90;;;;;;5116197;28;20204;-58
2022/06/04 00:58:53;;;;;;;1.40;1.20;;;18.30;96.50;;;;;;5116003;28;20193;-58
2022/06/04 01:01:26;;;;;;;0.95;0.95;;;18.30;96.30;;;;;;5115923;28;20256;-58
2022/06/04 01:04:47;;;;;;;1.00;0.90;;;18.20;96.50;;;;;;5114676;28;20591;-58
2022/06/04 01:07:30;;;;;;;1.27;1.10;;;18.30;96.50;;;;;;5115465;28;20595;-58
2022/06/04 01:10:26;;;;;;;1.20;1.10;;;18.20;96.60;;;;;;5116031;28;20250;-58
2022/06/04 01:13:28;;;;;;;2.03;0.98;;;18.20;96.70;;;;;;5115913;28;20525;-58
2022/06/04 01:16:08;;;;;;;0.90;0.90;;;18.20;96.10;;;;;;5102100;28;20220;-58
2022/06/04 01:18:43;;;;;;;1.05;1.00;;;18.20;96.00;;;;;;5115747;28;20641;-58
2022/06/04 01:21:23;;;;;;;1.08;0.90;;;18.10;96.20;;;;;;5115615;28;20168;-58
2022/06/04 01:24:08;;;;;;;0.80;0.80;;;18.00;96.90;;;;;;5115861;28;20177;-58
2022/06/04 01:27:10;;;;;;;1.35;0.95;;;18.00;96.70;;;;;;5115682;28;20526;-58
2022/06/04 01:29:50;;;;;;;1.65;1.25;;;18.00;96.60;;;;;;5115561;28;20180;-58
2022/06/04 01:32:36;;;;;;;1.10;1.00;;;18.00;96.80;;;;;;5115377;28;20173;-58
2022/06/04 01:35:09;;;;;;;1.17;1.05;;;17.90;97.00;;;;;;5115526;28;20166;-59
2022/06/04 01:38:00;;;;;;;1.20;1.00;;;17.80;96.90;;;;;;5115129;27;20213;-58
2022/06/04 01:41:04;;;;;;;1.15;1.05;;;17.90;96.90;;;;;;5115654;28;20222;-58
2022/06/04 01:44:00;;;;;;;1.30;1.05;;;17.80;97.10;;;;;;5111792;28;20189;-58
2022/06/04 01:46:33;;;;;;;1.20;1.10;;;17.80;96.70;;;;;;5101378;28;20188;-58
2022/06/04 01:49:16;;;;;;;1.10;1.00;;;17.80;96.40;;;;;;5114958;28;20512;-58
2022/06/04 01:51:44;;;;;;;1.45;1.17;;;17.80;96.90;;;;;;5113894;28;20181;-58
2022/06/04 01:54:17;;;;;;;1.23;1.13;;;17.80;96.60;;;;;;5115030;28;20170;-58
2022/06/04 01:56:49;;;;;;;1.83;1.20;;;17.80;96.70;;;;;;5114814;28;20222;-58
2022/06/04 01:59:25;;;;;;;1.67;1.10;;;17.70;96.60;;;;;;5114902;28;20166;-58
2022/06/04 02:01:56;;;;;;;1.75;1.42;;;17.60;97.00;;;;;;5115039;28;20645;-58
2022/06/04 02:04:29;;;;;;;1.10;1.00;;;17.60;97.20;;;;;;5114844;28;20226;-58
2022/06/04 02:09:48;;;;;;;1.30;1.20;;;17.70;97.40;;;;;;5114918;28;20337;-58
2022/06/04 02:12:15;;;;;;;0.90;0.90;;;17.60;97.00;;;;;;5114871;28;20157;-58
2022/06/04 02:14:42;;;;;;;1.88;1.20;;;17.50;96.90;;;;;;5114741;28;20246;-58
2022/06/04 02:17:13;;;;;;;1.35;1.25;;;17.40;96.90;;;;;;5113333;28;20201;-58
2022/06/04 02:19:40;;;;;;;1.60;1.13;;;17.40;97.40;;;;;;5114533;28;20170;-58
2022/06/04 02:22:05;;;;;;;1.13;1.02;;;17.30;97.00;;;;;;5114384;28;20194;-58
2022/06/04 02:24:31;;;;;;;1.80;1.15;;;17.40;97.20;;;;;;5114351;28;20177;-58
2022/06/04 02:26:57;;;;;;;1.23;1.13;;;17.40;97.00;;;;;;5114348;28;20177;-57
2022/06/04 02:29:23;;;;;;;1.33;1.08;;;17.40;97.20;;;;;;5114408;28;20235;-58
2022/06/04 02:32:08;;;;;;;2.38;1.13;;;17.50;97.20;;;;;;5112864;28;20177;-58
2022/06/04 02:34:49;;;;;;;1.85;1.23;;;17.40;97.40;;;;;;5114256;28;20248;-58
2022/06/04 02:37:49;;;;;;;1.45;1.35;;;17.30;97.40;;;;;;5113933;28;20669;-58
2022/06/04 02:40:24;;;;;;;0.98;0.95;;;17.10;97.40;;;;;;5113838;28;20169;-58
2022/06/04 02:43:15;;;;;;;1.23;1.13;;;17.20;97.50;;;;;;5112954;28;20522;-59
2022/06/04 02:45:50;;;;;;;1.40;1.30;;;17.20;97.50;;;;;;5114314;28;20212;-58
2022/06/04 02:48:26;;;;;;;1.63;1.13;;;17.10;97.70;;;;;;5113925;28;20626;-58
2022/06/04 02:51:04;;;;;;;1.10;1.00;;;17.10;97.60;;;;;;5114032;28;20259;-58
2022/06/04 02:53:33;;;;;;;1.77;1.40;;;17.10;97.70;;;;;;5113958;28;20165;-58
2022/06/04 02:56:17;;;;;;;2.17;1.38;;;17.00;97.70;;;;;;5113797;28;20169;-58
2022/06/04 02:58:46;;;;;;;1.50;1.15;;;17.00;98.10;;;;;;5112729;28;20577;-58
2022/06/04 03:01:13;;;;;;;1.45;1.20;;;17.00;97.70;;;;;;5113887;28;20173;-59
2022/06/04 03:03:40;;;;;;;1.25;1.15;;;16.90;97.90;;;;;;5113880;28;20224;-58
2022/06/04 03:06:08;;;;;;;1.80;1.40;;;16.80;97.60;;;;;;5113661;28;20213;-58
2022/06/04 03:08:38;;;;;;;1.50;1.40;;;16.80;98.30;;;;;;5113633;28;20260;-58
2022/06/04 03:11:04;;;;;;;1.20;1.10;;;16.80;98.00;;;;;;5113702;28;20173;-58
2022/06/04 03:13:29;;;;;;;1.40;1.30;;;16.80;98.10;;;;;;5113740;27;20261;-58
2022/06/04 03:15:55;;;;;;;1.48;1.38;;;16.70;98.30;;;;;;5113735;28;20189;-58
2022/06/04 03:18:21;;;;;;;1.73;1.33;;;16.70;97.90;;;;;;5113495;28;20211;-58
2022/06/04 03:20:47;;;;;;;1.40;1.30;;;16.70;97.70;;;;;;5113534;28;20204;-58
2022/06/04 03:23:13;;;;;;;2.42;1.30;;;16.50;98.00;;;;;;5113556;28;20178;-59
2022/06/04 03:25:38;;;;;;;1.30;1.20;;;16.50;98.20;;;;;;5113677;28;20165;-58
2022/06/04 03:28:05;;;;;;;1.17;1.10;;;16.50;98.20;;;;;;5113550;28;20245;-58
2022/06/04 03:30:32;;;;;;;1.58;1.10;;;16.40;98.30;;;;;;5113415;28;20652;-58
2022/06/04 03:32:58;;;;;;;1.30;1.17;;;16.40;98.30;;;;;;5113477;28;20648;-58
2022/06/04 03:35:24;;;;;;;1.52;1.42;;;16.40;98.40;;;;;;5113311;28;20175;-58
2022/06/04 03:37:50;;;;;;;1.35;1.25;;;16.20;97.90;;;;;;5113561;28;20220;-57
2022/06/04 03:40:16;;;;;;;1.65;1.48;;;16.30;98.50;;;;;;5113516;28;20169;-58
2022/06/04 03:42:42;;;;;;;1.98;1.20;;;16.30;98.40;;;;;;5113491;28;20180;-58
2022/06/04 03:45:09;;;;;;;1.30;1.20;;;16.10;98.50;;;;;;5112183;28;20174;-57
2022/06/04 03:47:38;;;;;;;1.60;1.33;;;16.20;98.50;;;;;;5113396;28;20184;-58
2022/06/04 03:50:06;;;;;;;2.03;1.38;;;16.20;98.20;;;;;;5113266;28;20177;-58
2022/06/04 03:52:31;;;;;;;1.55;1.27;;;16.20;98.20;;;;;;5115803;28;20174;-58
2022/06/04 03:54:57;;;;;;;1.75;1.45;;;16.20;98.80;;;;;;5116142;28;20264;-58
2022/06/04 03:57:45;;;;;;;1.67;1.33;;;16.30;98.80;;;;;;5117146;28;20201;-58
2022/06/04 04:00:19;;;;;;;1.30;1.20;;;16.10;98.90;;;;;;5117254;28;20173;-58
2022/06/04 04:02:58;;;;;;;2.40;1.40;;;16.10;98.60;;;;;;5117406;28;20642;-57
2022/06/04 04:05:31;;;;;;;1.85;1.63;;;16.20;98.70;;;;;;5117025;28;20204;-58
2022/06/04 04:07:58;;;;;;;2.08;1.40;;;16.10;98.80;;;;;;5117074;28;20709;-57
2022/06/04 04:10:25;;;;;;;1.55;1.45;;;16.00;98.40;;;;;;5116990;28;20172;-57
2022/06/04 04:12:51;;;;;;;1.30;1.20;;;16.00;98.50;;;;;;5116864;28;20173;-58
2022/06/04 04:15:18;;;;;;;1.48;1.38;;;15.90;98.60;;;;;;5117032;28;20188;-58
2022/06/04 04:17:44;;;;;;;2.75;1.40;;;15.90;98.80;;;;;;5116910;28;20685;-58
2022/06/04 04:20:17;;;;;;;1.17;1.08;;;15.90;98.70;;;;;;5115611;28;20192;-58
2022/06/04 04:22:44;;;;;;;1.52;1.40;;;16.00;98.90;;;;;;5116859;28;20176;-58
2022/06/04 04:25:11;;;;;;;1.75;1.30;;;15.90;98.90;;;;;;5116683;28;20173;-57
2022/06/04 04:27:37;;;;;;;1.63;1.38;;;15.90;98.80;;;;;;5116524;28;20654;-58
2022/06/04 04:30:05;;;;;;;1.33;1.23;;;15.90;98.80;;;;;;5115564;28;20227;-58
2022/06/04 04:32:32;;;;;;;1.55;1.45;;;16.00;99.00;;;;;;5116445;28;20204;-58
2022/06/04 04:34:58;;;;;;;1.58;1.48;;;16.00;99.10;;;;;;5115221;28;20185;-57
2022/06/04 04:37:24;;;;;;;1.42;1.33;;;15.90;99.10;;;;;;5116381;28;20201;-58
2022/06/04 04:39:50;;;;;;;1.30;1.20;;;15.90;99.40;;;;;;5116456;28;20212;-58
2022/06/04 04:42:16;;;;;;;1.83;1.40;;;15.90;99.00;;;;;;5116822;28;20259;-57
2022/06/04 04:44:41;;;;;;;1.50;1.40;;;15.90;99.60;;;;;;5116311;28;20255;-58
2022/06/04 04:47:07;;;;;;;1.92;1.23;;;16.00;99.30;;;;;;5116495;28;20184;-57
2022/06/04 04:49:33;;;;;;;2.03;1.83;;;15.90;99.00;;;;;;5114873;28;20634;-58
2022/06/04 04:51:59;;;;;;;1.23;1.13;;;16.00;98.90;;;;;;5116203;28;20230;-57
2022/06/04 04:54:26;;;;;;;1.70;1.60;;;15.90;99.10;;;;;;5116025;28;20172;-59
2022/06/04 04:56:52;;;;;;;1.63;1.42;;;15.90;99.00;;;;;;5115849;28;20228;-58
2022/06/04 04:59:17;;;;;;;1.27;1.15;;;15.90;98.90;;;;;;5116346;28;20638;-57
2022/06/04 05:01:44;;;;;;;1.50;1.40;;;15.80;99.00;;;;;;5116313;28;20178;-58
2022/06/04 05:04:10;;;;;;;1.65;1.30;;;15.90;99.40;;;;;;5115642;28;20657;-57
2022/06/04 05:06:36;;;;;;;1.33;1.23;;;15.90;99.50;;;;;;5115999;28;20201;-60
2022/06/04 05:09:03;;;;;;;1.40;1.30;;;16.00;99.90;;;;;;5115677;28;20667;-57
2022/06/04 05:11:32;;;;;;;1.70;1.60;;;15.90;99.30;;;;;;5116020;28;20173;-57
2022/06/04 05:14:00;;;;;;;1.63;1.52;;;15.80;99.00;;;;;;5115969;28;20169;-57
2022/06/04 05:16:28;;;;;;;1.60;1.45;;;15.80;99.50;;;;;;5115953;28;20177;-57
2022/06/04 05:18:54;;;;;;;1.88;1.58;;;15.80;98.80;;;;;;5115792;28;20208;-58
2022/06/04 05:21:36;;;;;;;2.22;1.55;;;15.80;99.10;;;;;;5115593;28;20568;-57
2022/06/04 05:24:01;;;;;;;2.40;1.50;;;15.80;98.80;;;;;;5115853;28;20165;-58
2022/06/04 05:26:27;;;;;;;2.35;1.65;;;15.80;98.80;;;;;;5115764;28;20173;-58
2022/06/04 05:28:53;;;;;;;1.38;1.27;;;15.70;99.20;;;;;;5114138;28;20515;-57
2022/06/04 05:31:19;;;;;;;1.50;1.40;;;15.60;98.90;;;;;;5115522;28;20174;-59
2022/06/04 05:33:45;;;;;;;1.85;1.60;;;15.50;98.90;;;;;;5115434;28;20181;-58
2022/06/04 05:36:12;;;;;;;1.73;1.40;;;15.60;99.40;;;;;;5115499;28;20173;-58
2022/06/04 05:38:39;;;;;;;1.83;1.73;;;15.60;99.70;;;;;;5115382;28;20217;-58
2022/06/04 05:41:11;;;;;;;1.58;1.48;;;15.60;99.20;;;;;;5115134;28;20168;-58
2022/06/04 05:43:39;;;;;;;1.58;1.48;;;15.60;99.60;;;;;;5115228;28;20161;-58
2022/06/04 05:46:07;;;;;;;2.45;1.48;;;15.60;99.20;;;;;;5115029;28;20206;-58
2022/06/04 05:48:36;;;;;;;2.20;1.50;;;15.70;99.30;;;;;;5114986;28;20177;-58
2022/06/04 05:51:02;;;;;;;2.60;1.60;;;15.70;99.50;;;;;;5114925;28;20170;-58
2022/06/04 05:53:28;;;;;;;1.95;1.77;;;15.70;99.10;;;;;;5115032;28;20207;-58
2022/06/04 05:55:54;;;;;;;1.45;1.35;;;15.70;98.90;;;;;;5114947;28;20583;-58
2022/06/04 05:58:20;;;;;;;2.38;1.60;;;15.80;99.20;;;;;;5114708;28;20244;-58
2022/06/04 06:00:46;;;;;;;1.63;1.52;;;15.90;99.40;;;;;;5115078;28;20192;-58
2022/06/04 06:03:11;;;;;;;1.60;1.40;;;15.80;99.70;;;;;;5114650;28;20173;-59
2022/06/04 06:05:45;;;;;;;2.10;1.92;;;15.80;99.30;;;;;;5111352;28;20205;-59
2022/06/04 06:08:12;;;;;;;1.92;1.33;;;15.80;99.50;;;;;;5113709;28;20176;-58
2022/06/04 06:10:43;;;;;;;2.38;1.88;;;15.80;99.50;;;;;;5114326;28;20634;-58
2022/06/04 06:13:10;;;;;;;2.00;1.50;;;15.80;99.10;;;;;;5114391;28;20173;-59
2022/06/04 06:15:36;;;;;;;2.70;2.20;;;15.80;99.70;;;;;;5113619;28;20192;-59
2022/06/04 06:18:04;;;;;;;2.15;1.90;;;15.80;99.50;;;;;;5112840;28;20209;-59
2022/06/04 06:20:30;;;;;;;3.05;1.88;;;15.70;99.40;;;;;;5113307;28;20169;-58
2022/06/04 06:22:56;;;;;;;4.00;2.03;;;15.70;99.80;;;;;;5114336;28;20264;-59
2022/06/04 06:25:21;;;;;;;2.10;1.88;;;15.70;99.80;;;;;;5114120;28;20227;-58
2022/06/04 06:27:47;;;;;;;2.35;2.15;;;15.70;99.90;;;;;;5114214;28;20205;-58
2022/06/04 06:30:14;;;;;;;3.40;2.08;;;15.70;99.90;;;;;;5113326;28;20503;-60
2022/06/04 06:32:40;;;;;;;2.58;1.70;;;15.80;99.80;;;;;;5113595;28;20174;-58
2022/06/04 06:35:07;;;;;;;4.43;2.17;;;15.70;99.90;;;;;;5113347;28;20166;-59
2022/06/04 06:37:33;;;;;;;2.00;1.80;;;15.70;99.90;;;;;;5113537;28;20328;-59
2022/06/04 06:39:58;;;;;;;2.38;2.17;;;15.80;99.90;;;;;;5112612;28;20185;-59
2022/06/04 06:42:24;;;;;;;2.28;2.08;;;15.70;99.80;;;;;;5111524;28;20183;-58
2022/06/04 06:44:50;;;;;;;3.25;2.35;;;15.80;99.90;;;;;;5113235;28;20692;-59
2022/06/04 06:47:15;;;;;;;3.45;2.72;;;15.90;99.90;;;;;;5110912;28;20185;-58
2022/06/04 06:49:41;;;;;;;2.22;2.03;;;16.00;99.90;;;;;;5113999;28;20185;-58
2022/06/04 06:52:09;;;;;;;2.60;2.22;;;15.90;99.90;;;;;;5113838;28;20173;-59
2022/06/04 06:54:37;;;;;;;3.45;2.30;;;16.00;99.90;;;;;;5114052;28;20260;-58
2022/06/04 06:57:09;;;;;;;2.42;2.17;;;16.10;99.90;;;;;;5113701;28;20208;-60
2022/06/04 06:59:35;;;;;;;3.80;2.30;;;16.10;99.90;;;;;;5113715;28;20579;-58
2022/06/04 07:02:01;;;;;;;2.97;2.47;;;16.10;99.90;;;;;;5113935;28;20615;-58
2022/06/04 07:04:28;;;;;;;2.58;2.38;;;16.20;99.90;;;;;;5113776;28;20184;-58
2022/06/04 07:06:57;;;;;;;3.10;2.17;;;16.30;99.90;;;;;;5113322;28;20254;-58
2022/06/04 07:09:32;;;;;;;3.42;2.30;;;16.40;99.90;;;;;;5113450;28;20161;-59
2022/06/04 07:11:58;;;;;;;2.40;2.20;;;16.50;99.90;;;;;;5112116;28;20195;-59
2022/06/04 07:14:24;;;;;;;3.40;2.47;;;16.70;99.90;;;;;;5113575;28;20173;-58
2022/06/04 07:16:51;;;;;;;3.33;2.83;;;16.90;99.90;;;;;;5113799;28;20561;-58
2022/06/04 07:19:18;;;;;;;2.42;2.22;;;17.00;99.40;;;;;;5113763;28;20166;-58
2022/06/04 07:21:45;;;;;;;2.92;2.15;;;17.10;99.40;;;;;;5113693;28;20181;-59
2022/06/04 07:24:11;;;;;;;2.72;2.53;;;17.20;99.40;;;;;;5113778;28;20546;-58
2022/06/04 07:26:38;;;;;;;3.50;2.17;;;17.50;99.90;;;;;;5116151;28;20178;-58
2022/06/04 07:29:04;;;;;;;3.08;2.30;;;17.70;99.60;;;;;;5117933;28;20256;-58
2022/06/04 07:31:31;;;;;;;3.88;2.55;;;17.90;99.70;;;;;;5117935;28;20169;-58
2022/06/04 07:33:58;;;;;;;2.50;2.30;;;18.10;99.70;;;;;;5117843;28;20173;-59
2022/06/04 07:36:34;;;;;;;2.63;2.40;;;18.10;98.10;;;;;;5117775;28;20260;-58
2022/06/04 07:39:00;;;;;;;3.30;2.40;;;18.20;98.70;;;;;;5117668;27;20168;-59
2022/06/04 07:41:38;;;;;;;3.58;2.60;;;18.10;98.50;;;;;;5117395;28;20203;-58
2022/06/04 07:44:06;;;;;;;3.50;2.88;;;18.00;98.60;;;;;;5117707;28;20198;-58
2022/06/04 07:46:32;;;;;;;2.92;2.50;;;18.00;98.70;;;;;;5117512;28;20687;-58
2022/06/04 07:49:00;;;;;;;3.45;2.40;;;17.70;98.60;;;;;;5117371;28;20181;-58
2022/06/04 07:51:28;;;;;;;2.85;2.25;;;17.60;99.50;;;;;;5117387;28;20180;-58
2022/06/04 07:53:53;;;;;;;2.80;2.55;;;17.70;99.50;;;;;;5117514;28;20184;-58
2022/06/04 07:56:20;;;;;;;2.97;2.65;;;17.90;99.50;;;;;;5116109;28;20260;-58
2022/06/04 07:58:47;;;;;;;3.95;3.00;;;18.00;99.90;;;;;;5115900;28;20316;-58
2022/06/04 08:01:15;;;;;;;3.88;3.05;;;18.10;99.10;;;;;;5117335;28;20678;-59
2022/06/04 08:03:42;;;;;;;4.53;2.67;;;18.10;99.30;;;;;;5117182;28;20208;-58
2022/06/04 08:06:10;;;;;;;3.10;2.80;;;18.10;99.10;;;;;;5116824;28;20197;-58
2022/06/04 08:08:36;;;;;;;3.08;2.78;;;18.00;99.20;;;;;;5117179;28;20181;-58
2022/06/04 08:11:30;;;;;;;3.38;2.88;;;18.00;99.80;;;;;;5117165;28;20252;-58
2022/06/04 08:13:49;;;;;;;2.97;2.47;;;18.10;99.30;;;;;;5116737;28;20275;-58
2022/06/04 08:16:15;;;;;;;3.80;2.90;;;18.30;99.50;;;;;;5116979;28;20257;-58
2022/06/04 08:18:40;;;;;;;4.05;3.28;;;18.20;99.40;;;;;;5116728;28;20205;-58
2022/06/04 08:21:06;;;;;;;4.50;2.85;;;18.20;99.80;;;;;;5115825;28;20215;-58
2022/06/04 08:23:33;;;;;;;3.08;2.55;;;18.40;99.90;;;;;;5115746;28;20265;-58
2022/06/04 08:25:58;;;;;;;3.45;2.80;;;18.70;99.50;;;;;;5115630;28;20256;-58
2022/06/04 08:28:24;;;;;;;2.70;2.47;;;18.80;98.10;;;;;;5116985;28;20587;-59
2022/06/04 08:31:02;;;;;;;3.83;3.00;;;18.80;98.90;;;;;;5116683;28;20642;-59
2022/06/04 08:33:28;;;;;;;3.47;3.00;;;18.80;99.00;;;;;;5116419;28;20173;-58
2022/06/04 08:35:53;;;;;;;4.85;3.38;;;18.70;99.20;;;;;;5115174;28;20179;-58
2022/06/04 08:38:19;;;;;;;3.05;2.75;;;18.70;98.50;;;;;;5115734;28;20420;-58
2022/06/04 08:40:54;;;;;;;3.55;3.03;;;18.90;99.40;;;;;;5116481;28;20637;-60
2022/06/04 08:43:25;;;;;;;3.60;3.28;;;19.10;99.00;;;;;;5116383;28;20245;-58
2022/06/04 08:45:52;;;;;;;4.20;3.35;;;19.50;98.80;;;;;;5116277;28;20173;-58
2022/06/04 08:48:30;;;;;;;4.55;3.30;;;19.60;97.80;;;;;;5116449;28;20187;-58
2022/06/04 08:50:56;;;;;;;3.67;3.00;;;19.40;97.70;;;;;;5116338;28;20169;-58
2022/06/04 08:53:27;;;;;;;3.30;3.08;;;19.50;98.40;;;;;;5116289;28;20177;-58
2022/06/04 08:59:10;;;;;;;4.40;3.38;;;19.70;97.30;;;;;;5116224;28;20184;-58
2022/06/04 09:01:38;;;;;;;4.53;3.60;;;20.00;98.70;;;;;;5116033;28;20169;-58
2022/06/04 09:04:31;;;;;;;3.60;3.28;;;19.90;97.70;;;;;;5114690;28;20184;-59
2022/06/04 09:07:15;;;;;;;4.50;3.30;;;19.90;97.80;;;;;;5115861;27;20238;-59
2022/06/04 09:10:19;;;;;;;4.28;3.88;;;19.80;98.20;;;;;;5116054;28;20165;-59
2022/06/04 09:12:55;;;;;;;4.45;3.30;;;19.60;98.70;;;;;;5052834;28;20258;-60
2022/06/04 09:15:41;;;;;;;4.05;3.65;;;19.90;98.70;;;;;;5108654;28;20177;-60
2022/06/04 09:18:20;;;;;;;4.72;3.50;;;20.20;98.50;;;;;;5115778;28;20620;-59
2022/06/04 09:20:49;;;;;;;4.43;3.63;;;20.60;97.30;;;;;;5115588;28;20165;-59
2022/06/04 09:23:27;;;;;;;4.82;3.60;;;20.50;97.70;;;;;;5115531;28;20538;-59
2022/06/04 09:26:00;;;;;;;4.32;3.72;;;20.50;98.00;;;;;;5115742;28;20234;-58
2022/06/04 09:28:28;;;;;;;3.85;3.30;;;20.50;98.00;;;;;;5115739;28;20546;-59
2022/06/04 09:31:26;;;;;;;4.22;3.80;;;20.40;98.20;;;;;;5115814;28;20173;-59
2022/06/04 09:34:06;;;;;;;4.25;3.47;;;20.30;97.80;;;;;;5115280;28;20177;-58
2022/06/04 09:36:34;;;;;;;4.20;3.78;;;20.10;98.10;;;;;;5115474;28;20667;-58
2022/06/04 09:39:19;;;;;;;5.00;3.45;;;20.00;97.90;;;;;;5115358;28;20173;-59
2022/06/04 09:41:50;;;;;;;4.55;3.95;;;19.80;98.30;;;;;;5115238;28;20185;-58
2022/06/04 09:44:16;;;;;;;4.32;3.92;;;19.70;98.60;;;;;;5115140;28;20256;-58
2022/06/04 09:46:45;;;;;;;4.90;4.35;;;19.60;98.70;;;;;;5115366;28;20184;-59
2022/06/04 09:49:36;;;;;;;5.50;4.22;;;19.60;98.00;;;;;;5114073;28;20166;-59
2022/06/04 09:52:25;;;;;;;5.78;4.20;;;19.60;98.80;;;;;;5115198;28;20223;-59
2022/06/04 09:54:58;;;;;;;5.07;4.15;;;19.80;99.20;;;;;;5115189;28;20523;-59
2022/06/04 09:57:37;;;;;;;4.30;3.60;;;19.80;98.90;;;;;;5113700;28;20201;-59
2022/06/04 10:00:21;;;;;;;4.90;4.18;;;20.00;98.90;;;;;;5115147;28;20197;-59
2022/06/04 10:03:04;;;;;;;5.78;4.45;;;20.30;99.00;;;;;;5113452;28;20207;-59
2022/06/04 10:05:31;;;;;;;5.03;3.78;;;20.60;98.00;;;;;;5114389;28;20576;-58
2022/06/04 10:07:57;;;;;;;5.55;4.05;;;20.60;97.90;;;;;;5113549;28;20185;-59
2022/06/04 10:10:38;;;;;;;5.53;4.10;;;20.40;98.20;;;;;;5113501;28;20173;-59
2022/06/04 10:16:14;;;;;;;5.65;4.18;;;20.40;98.50;;;;;;5114925;28;20314;-58
2022/06/04 10:18:40;;;;;;;4.75;4.22;;;20.30;97.70;;;;;;5114502;28;20562;-58
2022/06/04 10:21:20;;;;;;;4.95;3.90;;;20.60;98.30;;;;;;5113396;28;20169;-58
2022/06/04 10:23:49;;;;;;;4.65;3.95;;;20.80;98.30;;;;;;5114427;28;20176;-59
2022/06/04 10:26:38;;;;;;;5.43;4.47;;;21.30;98.10;;;;;;5114558;28;20165;-58
2022/06/04 10:29:33;;;;;;;5.60;4.40;;;21.60;98.20;;;;;;5114453;28;20210;-58
2022/06/04 10:32:13;;;;;;;4.40;3.53;;;21.70;97.90;;;;;;5114213;28;20182;-59
2022/06/04 10:35:06;;;;;;;5.30;4.43;;;21.50;96.50;;;;;;5114942;28;20252;-58
2022/06/04 10:37:51;;;;;;;5.32;4.07;;;21.30;97.20;;;;;;5114283;28;20204;-59
2022/06/04 10:40:44;;;;;;;6.03;3.90;;;21.50;97.30;;;;;;5114423;28;20162;-59
2022/06/04 10:43:27;;;;;;;5.70;4.00;;;21.60;96.80;;;;;;5114110;28;20173;-59
2022/06/04 10:46:02;;;;;;;5.28;4.18;;;21.90;97.20;;;;;;5113991;28;20290;-58
2022/06/04 10:48:55;;;;;;;5.45;3.95;;;22.00;96.20;;;;;;5114179;28;20626;-58
2022/06/04 10:51:42;;;;;;;5.72;3.83;;;22.10;96.50;;;;;;5114219;28;20169;-59
2022/06/04 10:54:30;;;;;;;4.43;4.03;;;22.20;96.60;;;;;;5114333;28;20177;-58
2022/06/04 10:57:19;;;;;;;4.55;4.10;;;22.50;96.50;;;;;;5113812;28;20204;-59
2022/06/04 10:59:45;;;;;;;5.05;3.97;;;22.50;95.90;;;;;;5113952;28;20205;-60
2022/06/04 11:02:39;;;;;;;4.35;3.95;;;22.30;95.80;;;;;;5113654;28;20192;-58
2022/06/04 11:05:13;;;;;;;4.72;3.95;;;22.20;95.70;;;;;;5113972;28;20195;-58
2022/06/04 11:07:53;;;;;;;5.50;4.30;;;22.20;96.10;;;;;;5113582;28;20197;-58
2022/06/04 11:10:25;;;;;;;4.43;3.60;;;22.20;96.60;;;;;;5113892;28;20165;-58
2022/06/04 11:13:19;;;;;;;4.72;3.90;;;22.30;95.60;;;;;;5113840;28;20215;-58
2022/06/04 11:15:47;;;;;;;6.05;4.55;;;22.40;96.20;;;;;;5113790;28;20169;-58
2022/06/04 11:18:41;;;;;;;5.55;4.25;;;22.30;97.10;;;;;;5113695;28;20201;-58
2022/06/04 11:21:20;;;;;;;4.97;4.10;;;22.40;96.10;;;;;;5113579;28;20181;-58
2022/06/04 11:24:01;;;;;;;4.13;3.72;;;22.50;96.40;;;;;;5113790;28;20173;-58
2022/06/04 11:26:37;;;;;;;6.13;4.82;;;22.70;95.50;;;;;;5113508;28;20630;-58
2022/06/04 11:29:04;;;;;;;4.78;3.63;;;22.80;95.50;;;;;;5113675;28;20283;-58
2022/06/04 11:31:57;;;;;;;5.18;4.32;;;22.80;96.00;;;;;;5113553;28;20563;-58
2022/06/04 11:34:53;;;;;;;5.68;4.18;;;22.80;95.40;;;;;;5113507;28;20518;-58
2022/06/04 11:37:31;;;;;;;4.60;3.63;;;23.20;95.70;;;;;;5113355;28;20262;-58
2022/06/04 11:40:18;;;;;;;5.10;4.30;;;23.20;95.60;;;;;;5112252;28;20622;-60
2022/06/04 11:42:59;;;;;;;4.43;4.00;;;23.20;95.40;;;;;;5113399;28;20172;-58
2022/06/04 11:45:42;;;;;;;6.57;4.60;;;23.30;95.50;;;;;;5112393;28;20169;-58
2022/06/04 11:48:43;;;;;;;6.53;4.43;;;23.30;95.60;;;;;;5113422;28;20178;-58
2022/06/04 11:51:37;;;;;;;4.75;3.90;;;23.20;95.50;;;;;;5113288;28;20633;-59
2022/06/04 11:54:24;;;;;;;4.80;4.03;;;23.30;95.40;;;;;;5113400;28;20594;-58
2022/06/04 11:57:13;;;;;;;5.70;4.90;;;23.30;94.90;;;;;;5113431;28;20229;-58
2022/06/04 11:59:52;;;;;;;5.20;4.20;;;23.20;94.90;;;;;;5113217;28;20179;-58
2022/06/04 12:02:43;;;;;;;5.85;4.35;;;23.10;94.80;;;;;;5113631;28;20169;-58
2022/06/04 12:05:23;;;;;;;6.68;4.38;;;23.20;95.20;;;;;;5113239;28;20177;-58
2022/06/04 12:07:54;;;;;;;6.78;4.22;;;23.50;95.10;;;;;;5113054;28;20212;-58
2022/06/04 12:10:35;;;;;;;4.55;3.97;;;23.40;95.10;;;;;;5113309;28;20573;-58
2022/06/04 12:13:06;;;;;;;4.75;4.13;;;23.60;95.30;;;;;;5114816;28;20634;-58
2022/06/04 12:15:58;;;;;;;5.72;3.95;;;23.60;95.60;;;;;;5115828;28;20169;-58
2022/06/04 12:18:49;;;;;;;4.90;4.40;;;23.70;94.70;;;;;;5116646;28;20707;-59
2022/06/04 12:24:35;;;;;;;5.07;4.05;;;23.90;94.90;;;;;;5116935;28;20180;-60
2022/06/04 12:27:19;;;;;;;5.43;4.43;;;23.70;94.70;;;;;;5116663;28;20179;-59
2022/06/04 12:29:56;;;;;;;6.95;4.93;;;23.70;94.90;;;;;;5116309;28;20176;-60
2022/06/04 12:32:34;;;;;;;5.35;4.25;;;23.80;95.00;;;;;;5114983;28;20173;-59
2022/06/04 12:35:21;;;;;;;5.47;4.60;;;24.10;94.50;;;;;;5116455;28;20173;-58
2022/06/04 12:37:59;;;;;;;5.25;4.55;;;24.30;95.10;;;;;;5116396;28;20213;-58
2022/06/04 12:40:31;;;;;;;5.70;4.50;;;24.00;94.30;;;;;;5116484;28;20184;-58
2022/06/04 12:43:15;;;;;;;4.93;4.22;;;23.80;94.80;;;;;;5115079;28;20173;-59
2022/06/04 12:45:41;;;;;;;5.78;4.82;;;23.90;95.20;;;;;;5115358;28;20314;-58
2022/06/04 12:48:28;;;;;;;5.30;4.53;;;24.00;94.20;;;;;;5116390;28;20260;-58
2022/06/04 12:51:15;;;;;;;6.45;4.95;;;24.00;95.10;;;;;;5116300;28;20248;-58
2022/06/04 12:53:54;;;;;;;6.78;5.38;;;24.20;95.00;;;;;;5116130;28;20702;-58
2022/06/04 12:56:28;;;;;;;6.80;5.07;;;24.30;94.30;;;;;;5115030;28;20656;-58
2022/06/04 12:59:00;;;;;;;6.53;5.10;;;24.00;94.20;;;;;;5116147;28;20208;-59
2022/06/04 13:01:37;;;;;;;7.00;4.90;;;23.90;94.20;;;;;;5116121;28;20172;-59
2022/06/04 13:04:06;;;;;;;5.90;5.07;;;24.00;94.80;;;;;;5116018;28;20169;-58
2022/06/04 13:06:46;;;;;;;5.28;4.43;;;24.10;94.80;;;;;;5115961;28;20185;-58
2022/06/04 13:09:30;;;;;;;6.03;5.43;;;24.00;94.40;;;;;;5116275;28;20165;-59
2022/06/04 13:12:25;;;;;;;5.57;4.55;;;24.30;94.80;;;;;;5115941;28;20564;-59
2022/06/04 13:15:17;;;;;;;5.85;4.65;;;24.30;94.20;;;;;;5092863;28;20174;-58
2022/06/04 13:17:49;;;;;;;6.93;5.22;;;24.10;94.30;;;;;;5108845;28;20681;-59
2022/06/04 13:20:21;;;;;;;5.85;4.75;;;24.20;94.80;;;;;;5115646;28;20211;-59
2022/06/04 13:23:10;;;;;;;4.65;4.05;;;24.20;94.90;;;;;;5115533;27;20176;-59
2022/06/04 13:25:50;;;;;;;5.20;4.43;;;24.20;95.30;;;;;;5115817;28;20177;-59
2022/06/04 13:28:32;;;;;;;5.88;4.63;;;24.20;94.40;;;;;;5115449;28;20681;-59
2022/06/04 13:31:00;;;;;;;5.65;4.85;;;24.30;94.80;;;;;;5115554;28;20214;-59
2022/06/04 13:33:26;;;;;;;5.97;4.60;;;24.50;94.10;;;;;;5115368;27;20680;-58
2022/06/04 13:35:54;;;;;;;6.72;4.90;;;24.60;95.00;;;;;;5114147;28;20189;-59
2022/06/04 13:38:25;;;;;;;6.22;4.60;;;24.60;94.20;;;;;;5115540;28;20205;-58